sensor_id;sensor_type;location;lat;lon;timestamp;P1;durP1;ratioP1;P2;durP2;ratioP2
68455;SDS011;55437;55.046;38.838;2022-11-20T00:02:12;14.27;;;5.72;;
68455;SDS011;55437;55.046;38.838;2022-11-20T00:04:37;15.32;;;7.07;;
68455;SDS011;55437;55.046;38.838;2022-11-20T00:07:04;14.73;;;6.00;;
68455;SDS011;55437;55.046;38.838;2022-11-20T00:09:30;16.33;;;7.28;;
68455;SDS011;55437;55.046;38.838;2022-11-20T00:11:55;15.30;;;6.57;;
68455;SDS011;55437;55.046;38.838;2022-11-20T00:14:21;15.68;;;6.38;;
68455;SDS011;55437;55.046;38.838;2022-11-20T00:16:47;14.25;;;5.97;;
68455;SDS011;55437;55.046;38.838;2022-11-20T00:19:12;15.45;;;6.22;;
68455;SDS011;55437;55.046;38.838;2022-11-20T00:21:38;15.65;;;5.85;;
68455;SDS011;55437;55.046;38.838;2022-11-20T00:24:04;15.25;;;6.30;;
68455;SDS011;55437;55.046;38.838;2022-11-20T00:26:30;14.60;;;6.10;;
68455;SDS011;55437;55.046;38.838;2022-11-20T00:28:56;16.33;;;6.32;;
68455;SDS011;55437;55.046;38.838;2022-11-20T00:31:23;16.45;;;6.75;;
68455;SDS011;55437;55.046;38.838;2022-11-20T00:33:49;14.70;;;6.65;;
68455;SDS011;55437;55.046;38.838;2022-11-20T00:36:16;15.02;;;6.50;;
68455;SDS011;55437;55.046;38.838;2022-11-20T00:38:44;15.27;;;6.18;;
68455;SDS011;55437;55.046;38.838;2022-11-20T00:41:12;17.30;;;7.50;;
68455;SDS011;55437;55.046;38.838;2022-11-20T00:43:39;15.70;;;8.38;;
68455;SDS011;55437;55.046;38.838;2022-11-20T00:46:06;15.48;;;6.22;;
68455;SDS011;55437;55.046;38.838;2022-11-20T00:48:34;15.55;;;6.68;;
68455;SDS011;55437;55.046;38.838;2022-11-20T00:51:00;15.30;;;6.82;;
68455;SDS011;55437;55.046;38.838;2022-11-20T00:53:26;17.50;;;7.80;;
68455;SDS011;55437;55.046;38.838;2022-11-20T00:55:59;14.27;;;6.40;;
68455;SDS011;55437;55.046;38.838;2022-11-20T00:58:34;16.83;;;7.05;;
68455;SDS011;55437;55.046;38.838;2022-11-20T01:01:02;14.85;;;6.55;;
68455;SDS011;55437;55.046;38.838;2022-11-20T01:03:31;14.70;;;5.68;;
68455;SDS011;55437;55.046;38.838;2022-11-20T01:06:01;13.55;;;5.82;;
68455;SDS011;55437;55.046;38.838;2022-11-20T01:08:35;14.57;;;6.75;;
68455;SDS011;55437;55.046;38.838;2022-11-20T01:11:02;17.38;;;6.68;;
68455;SDS011;55437;55.046;38.838;2022-11-20T01:13:30;14.45;;;6.22;;
68455;SDS011;55437;55.046;38.838;2022-11-20T01:16:06;15.52;;;6.43;;
68455;SDS011;55437;55.046;38.838;2022-11-20T01:18:35;15.77;;;6.60;;
68455;SDS011;55437;55.046;38.838;2022-11-20T01:21:05;14.00;;;5.97;;
68455;SDS011;55437;55.046;38.838;2022-11-20T01:23:37;15.45;;;6.60;;
68455;SDS011;55437;55.046;38.838;2022-11-20T01:26:04;13.20;;;5.53;;
68455;SDS011;55437;55.046;38.838;2022-11-20T01:28:32;12.98;;;6.15;;
68455;SDS011;55437;55.046;38.838;2022-11-20T01:30:58;14.82;;;6.35;;
68455;SDS011;55437;55.046;38.838;2022-11-20T01:33:24;15.05;;;6.45;;
68455;SDS011;55437;55.046;38.838;2022-11-20T01:35:51;16.55;;;6.65;;
68455;SDS011;55437;55.046;38.838;2022-11-20T01:38:17;15.63;;;6.50;;
68455;SDS011;55437;55.046;38.838;2022-11-20T01:40:43;13.80;;;7.47;;
68455;SDS011;55437;55.046;38.838;2022-11-20T01:43:18;13.48;;;7.10;;
68455;SDS011;55437;55.046;38.838;2022-11-20T01:51:27;12.38;;;6.57;;
68455;SDS011;55437;55.046;38.838;2022-11-20T01:53:57;13.30;;;6.15;;
68455;SDS011;55437;55.046;38.838;2022-11-20T01:56:27;15.02;;;6.68;;
68455;SDS011;55437;55.046;38.838;2022-11-20T01:58:56;13.63;;;6.70;;
68455;SDS011;55437;55.046;38.838;2022-11-20T02:01:26;11.68;;;6.00;;
68455;SDS011;55437;55.046;38.838;2022-11-20T02:03:52;12.25;;;6.07;;
68455;SDS011;55437;55.046;38.838;2022-11-20T02:06:40;12.93;;;6.05;;
68455;SDS011;55437;55.046;38.838;2022-11-20T02:09:09;13.25;;;5.88;;
68455;SDS011;55437;55.046;38.838;2022-11-20T02:11:35;13.93;;;5.82;;
68455;SDS011;55437;55.046;38.838;2022-11-20T02:14:01;14.57;;;6.35;;
68455;SDS011;55437;55.046;38.838;2022-11-20T02:16:45;12.13;;;5.97;;
68455;SDS011;55437;55.046;38.838;2022-11-20T02:19:17;14.57;;;6.15;;
68455;SDS011;55437;55.046;38.838;2022-11-20T02:22:08;14.45;;;6.15;;
68455;SDS011;55437;55.046;38.838;2022-11-20T02:24:39;13.13;;;5.72;;
68455;SDS011;55437;55.046;38.838;2022-11-20T02:27:10;12.75;;;6.53;;
68455;SDS011;55437;55.046;38.838;2022-11-20T02:32:26;14.75;;;6.60;;
68455;SDS011;55437;55.046;38.838;2022-11-20T02:34:56;13.90;;;6.10;;
68455;SDS011;55437;55.046;38.838;2022-11-20T02:37:23;14.85;;;6.10;;
68455;SDS011;55437;55.046;38.838;2022-11-20T02:39:57;14.43;;;5.95;;
68455;SDS011;55437;55.046;38.838;2022-11-20T02:42:23;13.63;;;6.40;;
68455;SDS011;55437;55.046;38.838;2022-11-20T02:44:49;12.50;;;5.72;;
68455;SDS011;55437;55.046;38.838;2022-11-20T02:47:15;13.02;;;5.10;;
68455;SDS011;55437;55.046;38.838;2022-11-20T02:49:42;13.43;;;6.53;;
68455;SDS011;55437;55.046;38.838;2022-11-20T02:52:07;14.75;;;5.75;;
68455;SDS011;55437;55.046;38.838;2022-11-20T02:54:33;14.57;;;6.72;;
68455;SDS011;55437;55.046;38.838;2022-11-20T02:56:59;12.45;;;6.05;;
68455;SDS011;55437;55.046;38.838;2022-11-20T02:59:24;11.85;;;5.10;;
68455;SDS011;55437;55.046;38.838;2022-11-20T03:01:50;14.57;;;6.05;;
68455;SDS011;55437;55.046;38.838;2022-11-20T03:04:16;12.40;;;6.10;;
68455;SDS011;55437;55.046;38.838;2022-11-20T03:06:42;16.77;;;6.55;;
68455;SDS011;55437;55.046;38.838;2022-11-20T03:09:08;14.52;;;5.95;;
68455;SDS011;55437;55.046;38.838;2022-11-20T03:11:34;13.35;;;6.03;;
68455;SDS011;55437;55.046;38.838;2022-11-20T03:14:03;15.45;;;6.25;;
68455;SDS011;55437;55.046;38.838;2022-11-20T03:18:56;16.75;;;5.70;;
68455;SDS011;55437;55.046;38.838;2022-11-20T03:21:22;15.00;;;6.88;;
68455;SDS011;55437;55.046;38.838;2022-11-20T03:23:48;14.13;;;5.63;;
68455;SDS011;55437;55.046;38.838;2022-11-20T03:26:18;13.23;;;5.60;;
68455;SDS011;55437;55.046;38.838;2022-11-20T03:28:46;13.60;;;5.97;;
68455;SDS011;55437;55.046;38.838;2022-11-20T03:31:17;12.85;;;5.75;;
68455;SDS011;55437;55.046;38.838;2022-11-20T03:33:45;13.18;;;5.97;;
68455;SDS011;55437;55.046;38.838;2022-11-20T03:36:12;14.35;;;6.03;;
68455;SDS011;55437;55.046;38.838;2022-11-20T03:38:39;13.32;;;6.05;;
68455;SDS011;55437;55.046;38.838;2022-11-20T03:41:10;13.38;;;5.93;;
68455;SDS011;55437;55.046;38.838;2022-11-20T03:43:40;12.07;;;5.82;;
68455;SDS011;55437;55.046;38.838;2022-11-20T03:46:06;13.13;;;6.57;;
68455;SDS011;55437;55.046;38.838;2022-11-20T03:48:32;12.50;;;6.30;;
68455;SDS011;55437;55.046;38.838;2022-11-20T03:51:09;15.50;;;6.43;;
68455;SDS011;55437;55.046;38.838;2022-11-20T03:53:39;13.77;;;7.78;;
68455;SDS011;55437;55.046;38.838;2022-11-20T03:56:07;13.65;;;6.05;;
68455;SDS011;55437;55.046;38.838;2022-11-20T03:58:34;14.38;;;6.72;;
68455;SDS011;55437;55.046;38.838;2022-11-20T04:01:09;14.05;;;5.60;;
68455;SDS011;55437;55.046;38.838;2022-11-20T04:03:37;14.23;;;6.38;;
68455;SDS011;55437;55.046;38.838;2022-11-20T04:08:31;14.55;;;6.80;;
68455;SDS011;55437;55.046;38.838;2022-11-20T04:11:07;13.90;;;5.65;;
68455;SDS011;55437;55.046;38.838;2022-11-20T04:13:34;12.57;;;6.40;;
68455;SDS011;55437;55.046;38.838;2022-11-20T04:16:00;15.70;;;7.05;;
68455;SDS011;55437;55.046;38.838;2022-11-20T04:18:25;15.10;;;6.38;;
68455;SDS011;55437;55.046;38.838;2022-11-20T04:20:51;11.82;;;5.50;;
68455;SDS011;55437;55.046;38.838;2022-11-20T04:23:17;15.07;;;6.82;;
68455;SDS011;55437;55.046;38.838;2022-11-20T04:25:42;13.18;;;6.57;;
68455;SDS011;55437;55.046;38.838;2022-11-20T04:28:08;12.30;;;5.22;;
68455;SDS011;55437;55.046;38.838;2022-11-20T04:30:34;14.38;;;6.45;;
68455;SDS011;55437;55.046;38.838;2022-11-20T04:33:00;14.30;;;6.43;;
68455;SDS011;55437;55.046;38.838;2022-11-20T04:35:26;12.15;;;6.07;;
68455;SDS011;55437;55.046;38.838;2022-11-20T04:37:51;13.52;;;5.90;;
68455;SDS011;55437;55.046;38.838;2022-11-20T04:40:17;11.90;;;5.15;;
68455;SDS011;55437;55.046;38.838;2022-11-20T04:42:43;15.20;;;6.40;;
68455;SDS011;55437;55.046;38.838;2022-11-20T04:45:10;15.10;;;6.63;;
68455;SDS011;55437;55.046;38.838;2022-11-20T04:47:35;13.85;;;5.97;;
68455;SDS011;55437;55.046;38.838;2022-11-20T04:50:01;18.05;;;6.95;;
68455;SDS011;55437;55.046;38.838;2022-11-20T04:52:28;14.05;;;6.50;;
68455;SDS011;55437;55.046;38.838;2022-11-20T04:54:54;16.92;;;8.38;;
68455;SDS011;55437;55.046;38.838;2022-11-20T04:57:20;14.38;;;7.10;;
68455;SDS011;55437;55.046;38.838;2022-11-20T04:59:46;14.85;;;5.82;;
68455;SDS011;55437;55.046;38.838;2022-11-20T05:02:11;14.52;;;6.53;;
68455;SDS011;55437;55.046;38.838;2022-11-20T05:04:37;15.63;;;7.18;;
68455;SDS011;55437;55.046;38.838;2022-11-20T05:07:03;13.93;;;6.15;;
68455;SDS011;55437;55.046;38.838;2022-11-20T05:09:29;17.95;;;7.60;;
68455;SDS011;55437;55.046;38.838;2022-11-20T05:11:55;15.13;;;7.15;;
68455;SDS011;55437;55.046;38.838;2022-11-20T05:14:21;17.67;;;6.88;;
68455;SDS011;55437;55.046;38.838;2022-11-20T05:16:47;15.75;;;6.75;;
68455;SDS011;55437;55.046;38.838;2022-11-20T05:19:12;16.00;;;6.70;;
68455;SDS011;55437;55.046;38.838;2022-11-20T05:21:38;14.32;;;6.05;;
68455;SDS011;55437;55.046;38.838;2022-11-20T05:24:04;14.07;;;6.20;;
68455;SDS011;55437;55.046;38.838;2022-11-20T05:26:31;14.57;;;6.75;;
68455;SDS011;55437;55.046;38.838;2022-11-20T05:28:56;12.38;;;6.20;;
68455;SDS011;55437;55.046;38.838;2022-11-20T05:31:23;16.10;;;7.22;;
68455;SDS011;55437;55.046;38.838;2022-11-20T05:33:50;13.65;;;5.72;;
68455;SDS011;55437;55.046;38.838;2022-11-20T05:36:16;17.30;;;6.72;;
68455;SDS011;55437;55.046;38.838;2022-11-20T05:38:43;15.68;;;7.38;;
68455;SDS011;55437;55.046;38.838;2022-11-20T05:41:10;14.52;;;5.93;;
68455;SDS011;55437;55.046;38.838;2022-11-20T05:43:41;12.98;;;6.05;;
68455;SDS011;55437;55.046;38.838;2022-11-20T05:46:08;16.10;;;6.57;;
68455;SDS011;55437;55.046;38.838;2022-11-20T05:48:36;12.15;;;6.13;;
68455;SDS011;55437;55.046;38.838;2022-11-20T05:51:04;14.90;;;6.55;;
68455;SDS011;55437;55.046;38.838;2022-11-20T05:53:32;15.30;;;6.93;;
68455;SDS011;55437;55.046;38.838;2022-11-20T05:55:59;16.27;;;6.57;;
68455;SDS011;55437;55.046;38.838;2022-11-20T05:58:26;14.13;;;6.88;;
68455;SDS011;55437;55.046;38.838;2022-11-20T06:00:53;15.27;;;6.05;;
68455;SDS011;55437;55.046;38.838;2022-11-20T06:03:20;15.35;;;7.18;;
68455;SDS011;55437;55.046;38.838;2022-11-20T06:05:46;13.52;;;6.35;;
68455;SDS011;55437;55.046;38.838;2022-11-20T06:08:12;15.25;;;6.55;;
68455;SDS011;55437;55.046;38.838;2022-11-20T06:10:38;13.23;;;6.38;;
68455;SDS011;55437;55.046;38.838;2022-11-20T06:13:03;16.13;;;7.18;;
68455;SDS011;55437;55.046;38.838;2022-11-20T06:15:29;15.45;;;6.65;;
68455;SDS011;55437;55.046;38.838;2022-11-20T06:17:55;14.73;;;6.53;;
68455;SDS011;55437;55.046;38.838;2022-11-20T06:20:21;14.35;;;7.07;;
68455;SDS011;55437;55.046;38.838;2022-11-20T06:22:47;16.42;;;7.22;;
68455;SDS011;55437;55.046;38.838;2022-11-20T06:25:13;15.65;;;6.55;;
68455;SDS011;55437;55.046;38.838;2022-11-20T06:27:39;15.13;;;6.68;;
68455;SDS011;55437;55.046;38.838;2022-11-20T06:30:05;15.38;;;7.00;;
68455;SDS011;55437;55.046;38.838;2022-11-20T06:32:31;12.45;;;6.07;;
68455;SDS011;55437;55.046;38.838;2022-11-20T06:34:58;16.70;;;7.45;;
68455;SDS011;55437;55.046;38.838;2022-11-20T06:37:24;15.70;;;6.70;;
68455;SDS011;55437;55.046;38.838;2022-11-20T06:39:49;15.27;;;6.35;;
68455;SDS011;55437;55.046;38.838;2022-11-20T06:42:15;15.57;;;6.90;;
68455;SDS011;55437;55.046;38.838;2022-11-20T06:44:41;15.57;;;7.75;;
68455;SDS011;55437;55.046;38.838;2022-11-20T06:47:06;15.20;;;7.20;;
68455;SDS011;55437;55.046;38.838;2022-11-20T06:49:32;15.05;;;6.35;;
68455;SDS011;55437;55.046;38.838;2022-11-20T06:51:59;15.05;;;7.32;;
68455;SDS011;55437;55.046;38.838;2022-11-20T06:54:25;15.07;;;6.82;;
68455;SDS011;55437;55.046;38.838;2022-11-20T06:56:51;16.00;;;7.30;;
68455;SDS011;55437;55.046;38.838;2022-11-20T06:59:16;15.15;;;7.18;;
68455;SDS011;55437;55.046;38.838;2022-11-20T07:01:42;16.05;;;7.57;;
68455;SDS011;55437;55.046;38.838;2022-11-20T07:04:08;15.98;;;6.50;;
68455;SDS011;55437;55.046;38.838;2022-11-20T07:06:34;15.55;;;6.53;;
68455;SDS011;55437;55.046;38.838;2022-11-20T07:08:59;15.90;;;6.70;;
68455;SDS011;55437;55.046;38.838;2022-11-20T07:11:25;15.48;;;6.63;;
68455;SDS011;55437;55.046;38.838;2022-11-20T07:13:51;16.58;;;6.65;;
68455;SDS011;55437;55.046;38.838;2022-11-20T07:16:17;16.38;;;7.70;;
68455;SDS011;55437;55.046;38.838;2022-11-20T07:18:42;14.88;;;7.18;;
68455;SDS011;55437;55.046;38.838;2022-11-20T07:21:09;15.07;;;6.80;;
68455;SDS011;55437;55.046;38.838;2022-11-20T07:23:35;15.70;;;6.78;;
68455;SDS011;55437;55.046;38.838;2022-11-20T07:26:02;16.15;;;7.57;;
68455;SDS011;55437;55.046;38.838;2022-11-20T07:28:29;15.75;;;7.55;;
68455;SDS011;55437;55.046;38.838;2022-11-20T07:30:55;14.50;;;6.55;;
68455;SDS011;55437;55.046;38.838;2022-11-20T07:33:21;13.55;;;6.00;;
68455;SDS011;55437;55.046;38.838;2022-11-20T07:35:46;17.65;;;6.82;;
68455;SDS011;55437;55.046;38.838;2022-11-20T07:38:12;16.23;;;7.07;;
68455;SDS011;55437;55.046;38.838;2022-11-20T07:40:38;14.27;;;7.22;;
68455;SDS011;55437;55.046;38.838;2022-11-20T07:43:04;17.60;;;7.25;;
68455;SDS011;55437;55.046;38.838;2022-11-20T07:45:30;17.70;;;8.13;;
68455;SDS011;55437;55.046;38.838;2022-11-20T07:47:55;15.10;;;6.93;;
68455;SDS011;55437;55.046;38.838;2022-11-20T07:50:21;16.92;;;7.75;;
68455;SDS011;55437;55.046;38.838;2022-11-20T07:52:47;15.95;;;6.70;;
68455;SDS011;55437;55.046;38.838;2022-11-20T07:55:13;15.25;;;6.53;;
68455;SDS011;55437;55.046;38.838;2022-11-20T07:57:39;17.42;;;6.85;;
68455;SDS011;55437;55.046;38.838;2022-11-20T08:00:05;14.43;;;6.43;;
68455;SDS011;55437;55.046;38.838;2022-11-20T08:02:40;19.17;;;8.00;;
68455;SDS011;55437;55.046;38.838;2022-11-20T08:05:10;15.60;;;7.18;;
68455;SDS011;55437;55.046;38.838;2022-11-20T08:07:37;15.73;;;6.50;;
68455;SDS011;55437;55.046;38.838;2022-11-20T08:10:03;14.20;;;6.30;;
68455;SDS011;55437;55.046;38.838;2022-11-20T08:12:29;13.38;;;6.72;;
68455;SDS011;55437;55.046;38.838;2022-11-20T08:15:13;16.00;;;7.20;;
68455;SDS011;55437;55.046;38.838;2022-11-20T08:17:39;15.80;;;6.95;;
68455;SDS011;55437;55.046;38.838;2022-11-20T08:20:05;12.88;;;6.07;;
68455;SDS011;55437;55.046;38.838;2022-11-20T08:22:34;14.68;;;6.35;;
68455;SDS011;55437;55.046;38.838;2022-11-20T08:25:00;13.68;;;7.20;;
68455;SDS011;55437;55.046;38.838;2022-11-20T08:27:27;14.55;;;6.45;;
68455;SDS011;55437;55.046;38.838;2022-11-20T08:29:52;15.80;;;7.43;;
68455;SDS011;55437;55.046;38.838;2022-11-20T08:32:21;14.77;;;7.45;;
68455;SDS011;55437;55.046;38.838;2022-11-20T08:34:47;14.57;;;6.88;;
68455;SDS011;55437;55.046;38.838;2022-11-20T08:37:12;13.90;;;6.50;;
68455;SDS011;55437;55.046;38.838;2022-11-20T08:39:38;15.68;;;7.43;;
68455;SDS011;55437;55.046;38.838;2022-11-20T08:42:07;16.15;;;6.93;;
68455;SDS011;55437;55.046;38.838;2022-11-20T08:44:33;14.13;;;7.03;;
68455;SDS011;55437;55.046;38.838;2022-11-20T08:46:59;14.80;;;8.25;;
68455;SDS011;55437;55.046;38.838;2022-11-20T08:49:27;18.75;;;7.13;;
68455;SDS011;55437;55.046;38.838;2022-11-20T08:51:53;18.48;;;7.43;;
68455;SDS011;55437;55.046;38.838;2022-11-20T08:54:20;15.38;;;7.88;;
68455;SDS011;55437;55.046;38.838;2022-11-20T08:56:47;15.45;;;6.72;;
68455;SDS011;55437;55.046;38.838;2022-11-20T08:59:13;15.52;;;7.28;;
68455;SDS011;55437;55.046;38.838;2022-11-20T09:01:39;18.75;;;8.02;;
68455;SDS011;55437;55.046;38.838;2022-11-20T09:04:04;16.00;;;7.43;;
68455;SDS011;55437;55.046;38.838;2022-11-20T09:06:30;16.15;;;7.13;;
68455;SDS011;55437;55.046;38.838;2022-11-20T09:08:56;17.08;;;7.70;;
68455;SDS011;55437;55.046;38.838;2022-11-20T09:11:22;17.38;;;7.72;;
68455;SDS011;55437;55.046;38.838;2022-11-20T09:13:48;14.60;;;6.70;;
68455;SDS011;55437;55.046;38.838;2022-11-20T09:16:14;16.63;;;7.25;;
68455;SDS011;55437;55.046;38.838;2022-11-20T09:18:40;14.18;;;6.28;;
68455;SDS011;55437;55.046;38.838;2022-11-20T09:21:06;17.48;;;8.35;;
68455;SDS011;55437;55.046;38.838;2022-11-20T09:23:38;14.82;;;6.80;;
68455;SDS011;55437;55.046;38.838;2022-11-20T09:26:08;18.40;;;7.85;;
68455;SDS011;55437;55.046;38.838;2022-11-20T09:28:38;18.02;;;7.88;;
68455;SDS011;55437;55.046;38.838;2022-11-20T09:31:07;19.00;;;6.85;;
68455;SDS011;55437;55.046;38.838;2022-11-20T09:33:34;15.27;;;7.00;;
68455;SDS011;55437;55.046;38.838;2022-11-20T09:36:01;17.58;;;7.05;;
68455;SDS011;55437;55.046;38.838;2022-11-20T09:38:26;16.15;;;7.45;;
68455;SDS011;55437;55.046;38.838;2022-11-20T09:49:00;20.65;;;8.63;;
68455;SDS011;55437;55.046;38.838;2022-11-20T09:51:35;22.48;;;8.73;;
68455;SDS011;55437;55.046;38.838;2022-11-20T09:54:26;20.23;;;8.18;;
68455;SDS011;55437;55.046;38.838;2022-11-20T09:56:58;19.02;;;8.10;;
68455;SDS011;55437;55.046;38.838;2022-11-20T10:05:19;20.38;;;8.40;;
68455;SDS011;55437;55.046;38.838;2022-11-20T10:10:35;18.75;;;8.13;;
68455;SDS011;55437;55.046;38.838;2022-11-20T10:29:53;25.83;;;9.25;;
68455;SDS011;55437;55.046;38.838;2022-11-20T10:32:39;20.55;;;9.98;;
68455;SDS011;55437;55.046;38.838;2022-11-20T10:37:44;23.05;;;9.55;;
68455;SDS011;55437;55.046;38.838;2022-11-20T10:43:09;23.50;;;9.60;;
68455;SDS011;55437;55.046;38.838;2022-11-20T10:48:15;22.30;;;9.50;;
68455;SDS011;55437;55.046;38.838;2022-11-20T10:50:50;19.50;;;8.88;;
68455;SDS011;55437;55.046;38.838;2022-11-20T11:02:24;23.17;;;9.85;;
68455;SDS011;55437;55.046;38.838;2022-11-20T11:04:58;22.02;;;10.45;;
68455;SDS011;55437;55.046;38.838;2022-11-20T11:07:36;25.98;;;11.07;;
68455;SDS011;55437;55.046;38.838;2022-11-20T11:10:15;27.70;;;11.02;;
68455;SDS011;55437;55.046;38.838;2022-11-20T11:12:45;26.17;;;10.85;;
68455;SDS011;55437;55.046;38.838;2022-11-20T11:18:10;32.30;;;11.15;;
68455;SDS011;55437;55.046;38.838;2022-11-20T11:20:36;26.90;;;12.18;;
68455;SDS011;55437;55.046;38.838;2022-11-20T11:23:03;26.27;;;11.93;;
68455;SDS011;55437;55.046;38.838;2022-11-20T11:25:30;27.65;;;11.57;;
68455;SDS011;55437;55.046;38.838;2022-11-20T11:28:02;27.00;;;11.38;;
68455;SDS011;55437;55.046;38.838;2022-11-20T11:30:44;28.80;;;12.88;;
68455;SDS011;55437;55.046;38.838;2022-11-20T11:33:11;31.45;;;11.68;;
68455;SDS011;55437;55.046;38.838;2022-11-20T11:35:45;28.08;;;11.82;;
68455;SDS011;55437;55.046;38.838;2022-11-20T11:38:16;30.75;;;11.80;;
68455;SDS011;55437;55.046;38.838;2022-11-20T11:40:44;31.13;;;12.02;;
68455;SDS011;55437;55.046;38.838;2022-11-20T11:43:17;49.03;;;18.40;;
68455;SDS011;55437;55.046;38.838;2022-11-20T11:46:13;29.42;;;11.23;;
68455;SDS011;55437;55.046;38.838;2022-11-20T11:48:58;31.25;;;12.45;;
68455;SDS011;55437;55.046;38.838;2022-11-20T11:57:16;30.10;;;12.30;;
68455;SDS011;55437;55.046;38.838;2022-11-20T12:05:23;35.10;;;12.73;;
68455;SDS011;55437;55.046;38.838;2022-11-20T12:07:57;32.45;;;12.07;;
68455;SDS011;55437;55.046;38.838;2022-11-20T12:10:48;31.17;;;12.38;;
68455;SDS011;55437;55.046;38.838;2022-11-20T12:16:02;30.30;;;12.20;;
68455;SDS011;55437;55.046;38.838;2022-11-20T12:24:04;29.88;;;11.38;;
68455;SDS011;55437;55.046;38.838;2022-11-20T12:26:48;32.20;;;13.18;;
68455;SDS011;55437;55.046;38.838;2022-11-20T12:39:56;29.83;;;12.10;;
68455;SDS011;55437;55.046;38.838;2022-11-20T12:53:39;33.75;;;12.30;;
68455;SDS011;55437;55.046;38.838;2022-11-20T12:56:30;29.83;;;12.32;;
68455;SDS011;55437;55.046;38.838;2022-11-20T13:06:50;27.08;;;12.23;;
68455;SDS011;55437;55.046;38.838;2022-11-20T13:09:18;28.75;;;11.57;;
68455;SDS011;55437;55.046;38.838;2022-11-20T13:17:46;25.77;;;11.32;;
68455;SDS011;55437;55.046;38.838;2022-11-20T13:20:25;30.27;;;12.02;;
68455;SDS011;55437;55.046;38.838;2022-11-20T13:22:53;26.75;;;12.00;;
68455;SDS011;55437;55.046;38.838;2022-11-20T13:25:22;27.25;;;10.98;;
68455;SDS011;55437;55.046;38.838;2022-11-20T13:27:49;31.70;;;11.48;;
68455;SDS011;55437;55.046;38.838;2022-11-20T13:30:17;23.23;;;10.25;;
68455;SDS011;55437;55.046;38.838;2022-11-20T13:32:50;22.85;;;10.25;;
68455;SDS011;55437;55.046;38.838;2022-11-20T13:35:37;24.23;;;10.13;;
68455;SDS011;55437;55.046;38.838;2022-11-20T13:38:07;29.42;;;10.73;;
68455;SDS011;55437;55.046;38.838;2022-11-20T13:40:54;25.50;;;10.80;;
68455;SDS011;55437;55.046;38.838;2022-11-20T13:46:05;20.45;;;8.32;;
68455;SDS011;55437;55.046;38.838;2022-11-20T13:48:33;24.33;;;10.48;;
68455;SDS011;55437;55.046;38.838;2022-11-20T13:56:59;20.15;;;9.02;;
68455;SDS011;55437;55.046;38.838;2022-11-20T14:02:16;21.88;;;9.88;;
68455;SDS011;55437;55.046;38.838;2022-11-20T14:04:55;23.38;;;9.32;;
68455;SDS011;55437;55.046;38.838;2022-11-20T14:07:44;20.30;;;9.80;;
68455;SDS011;55437;55.046;38.838;2022-11-20T14:10:18;20.67;;;9.75;;
68455;SDS011;55437;55.046;38.838;2022-11-20T14:12:47;20.60;;;10.25;;
68455;SDS011;55437;55.046;38.838;2022-11-20T14:15:24;20.35;;;9.57;;
68455;SDS011;55437;55.046;38.838;2022-11-20T14:17:57;23.58;;;11.23;;
68455;SDS011;55437;55.046;38.838;2022-11-20T14:20:27;22.30;;;9.35;;
68455;SDS011;55437;55.046;38.838;2022-11-20T14:22:56;21.58;;;10.52;;
68455;SDS011;55437;55.046;38.838;2022-11-20T14:25:23;25.52;;;10.60;;
68455;SDS011;55437;55.046;38.838;2022-11-20T14:27:57;23.67;;;10.68;;
68455;SDS011;55437;55.046;38.838;2022-11-20T14:30:29;23.60;;;10.63;;
68455;SDS011;55437;55.046;38.838;2022-11-20T14:33:03;22.17;;;10.45;;
68455;SDS011;55437;55.046;38.838;2022-11-20T14:35:30;24.60;;;10.57;;
68455;SDS011;55437;55.046;38.838;2022-11-20T14:38:00;27.25;;;9.98;;
68455;SDS011;55437;55.046;38.838;2022-11-20T14:40:34;25.17;;;10.13;;
68455;SDS011;55437;55.046;38.838;2022-11-20T14:43:01;23.10;;;9.48;;
68455;SDS011;55437;55.046;38.838;2022-11-20T14:45:45;22.02;;;10.07;;
68455;SDS011;55437;55.046;38.838;2022-11-20T14:48:16;22.38;;;9.88;;
68455;SDS011;55437;55.046;38.838;2022-11-20T14:50:44;22.45;;;9.73;;
68455;SDS011;55437;55.046;38.838;2022-11-20T14:53:10;22.13;;;10.60;;
68455;SDS011;55437;55.046;38.838;2022-11-20T14:55:53;24.40;;;10.15;;
68455;SDS011;55437;55.046;38.838;2022-11-20T14:58:24;23.15;;;10.80;;
68455;SDS011;55437;55.046;38.838;2022-11-20T15:00:53;22.42;;;9.70;;
68455;SDS011;55437;55.046;38.838;2022-11-20T15:03:21;22.52;;;9.98;;
68455;SDS011;55437;55.046;38.838;2022-11-20T15:05:48;24.30;;;11.07;;
68455;SDS011;55437;55.046;38.838;2022-11-20T15:08:16;22.15;;;10.60;;
68455;SDS011;55437;55.046;38.838;2022-11-20T15:10:52;34.20;;;12.63;;
68455;SDS011;55437;55.046;38.838;2022-11-20T15:15:52;37.67;;;14.32;;
68455;SDS011;55437;55.046;38.838;2022-11-20T15:18:21;43.42;;;15.02;;
68455;SDS011;55437;55.046;38.838;2022-11-20T15:20:57;46.58;;;14.68;;
68455;SDS011;55437;55.046;38.838;2022-11-20T15:23:30;39.58;;;14.90;;
68455;SDS011;55437;55.046;38.838;2022-11-20T15:25:55;36.72;;;13.65;;
68455;SDS011;55437;55.046;38.838;2022-11-20T15:28:27;42.15;;;15.70;;
68455;SDS011;55437;55.046;38.838;2022-11-20T15:30:58;41.58;;;14.32;;
68455;SDS011;55437;55.046;38.838;2022-11-20T15:33:29;41.78;;;15.55;;
68455;SDS011;55437;55.046;38.838;2022-11-20T15:35:57;38.92;;;15.77;;
68455;SDS011;55437;55.046;38.838;2022-11-20T15:38:23;39.05;;;15.25;;
68455;SDS011;55437;55.046;38.838;2022-11-20T15:40:49;36.22;;;14.38;;
68455;SDS011;55437;55.046;38.838;2022-11-20T15:43:16;39.90;;;14.05;;
68455;SDS011;55437;55.046;38.838;2022-11-20T15:48:12;45.88;;;16.38;;
68455;SDS011;55437;55.046;38.838;2022-11-20T15:50:46;45.92;;;15.88;;
68455;SDS011;55437;55.046;38.838;2022-11-20T15:53:18;43.33;;;16.00;;
68455;SDS011;55437;55.046;38.838;2022-11-20T15:55:44;43.72;;;15.73;;
68455;SDS011;55437;55.046;38.838;2022-11-20T15:58:14;41.03;;;16.27;;
68455;SDS011;55437;55.046;38.838;2022-11-20T16:00:41;46.17;;;15.70;;
68455;SDS011;55437;55.046;38.838;2022-11-20T16:03:11;43.08;;;14.27;;
68455;SDS011;55437;55.046;38.838;2022-11-20T16:05:41;40.42;;;14.07;;
68455;SDS011;55437;55.046;38.838;2022-11-20T16:08:16;35.05;;;14.45;;
68455;SDS011;55437;55.046;38.838;2022-11-20T16:10:42;38.63;;;15.52;;
68455;SDS011;55437;55.046;38.838;2022-11-20T16:13:11;39.38;;;16.73;;
68455;SDS011;55437;55.046;38.838;2022-11-20T16:16:01;41.30;;;15.52;;
68455;SDS011;55437;55.046;38.838;2022-11-20T16:18:48;41.85;;;16.13;;
68455;SDS011;55437;55.046;38.838;2022-11-20T16:21:15;47.67;;;15.60;;
68455;SDS011;55437;55.046;38.838;2022-11-20T16:23:41;43.65;;;16.08;;
68455;SDS011;55437;55.046;38.838;2022-11-20T16:26:14;38.95;;;15.02;;
68455;SDS011;55437;55.046;38.838;2022-11-20T16:28:46;40.90;;;14.95;;
68455;SDS011;55437;55.046;38.838;2022-11-20T16:31:12;43.05;;;16.20;;
68455;SDS011;55437;55.046;38.838;2022-11-20T16:33:39;45.35;;;15.23;;
68455;SDS011;55437;55.046;38.838;2022-11-20T16:36:09;40.17;;;14.73;;
68455;SDS011;55437;55.046;38.838;2022-11-20T16:38:37;43.17;;;15.45;;
68455;SDS011;55437;55.046;38.838;2022-11-20T16:41:06;47.70;;;17.75;;
68455;SDS011;55437;55.046;38.838;2022-11-20T16:43:45;43.95;;;15.85;;
68455;SDS011;55437;55.046;38.838;2022-11-20T16:46:21;45.38;;;17.15;;
68455;SDS011;55437;55.046;38.838;2022-11-20T16:48:55;49.17;;;18.65;;